Time;durP1;ratioP1;P1;durP2;ratioP2;P2;SDS_P1;SDS_P2;PMS_P1;PMS_P2;Temp;Humidity;BMP_temperature;BMP_pressure;BME280_temperature;BME280_humidity;BME280_pressure;Samples;Min_cycle;Max_cycle;Signal;HPM_P1;HPM_P2
2021/04/01 00:00:39;;;;;;;2.95;1.60;;;;;;;11.71;57.98;100804.19;5007902;28;20638;-71
2021/04/01 00:03:05;;;;;;;2.58;1.65;;;;;;;11.66;55.37;100796.69;5005407;28;20033;-71
2021/04/01 00:05:31;;;;;;;2.13;1.38;;;;;;;11.62;55.42;100798.78;5012242;28;20454;-72
2021/04/01 00:07:57;;;;;;;3.65;1.58;;;;;;;11.56;57.31;100798.56;4994014;28;20033;-71
2021/04/01 00:10:26;;;;;;;2.45;1.60;;;;;;;11.45;55.61;100792.50;4999760;28;20487;-71
2021/04/01 00:12:52;;;;;;;4.78;2.00;;;;;;;11.37;56.62;100791.59;5008847;28;20052;-72
2021/04/01 00:15:17;;;;;;;2.70;1.65;;;;;;;11.32;55.89;100796.50;5004159;28;20042;-73
2021/04/01 00:17:43;;;;;;;4.28;2.30;;;;;;;11.19;56.88;100789.75;4998145;28;20042;-72
2021/04/01 00:20:12;;;;;;;4.68;2.17;;;;;;;11.14;56.41;100785.91;5002848;28;20112;-72
2021/04/01 00:22:37;;;;;;;3.60;1.77;;;;;;;11.02;56.87;100782.63;5003499;28;20034;-71
2021/04/01 00:25:04;;;;;;;4.15;1.88;;;;;;;11.02;58.04;100782.63;5010932;28;20034;-71
2021/04/01 00:27:30;;;;;;;3.47;1.60;;;;;;;11.04;56.94;100773.56;5011642;28;20030;-72
2021/04/01 00:29:55;;;;;;;2.45;1.40;;;;;;;11.04;57.37;100783.31;5011785;28;20121;-71
2021/04/01 00:32:20;;;;;;;3.67;2.03;;;;;;;11.09;55.92;100767.81;5011067;28;20552;-72
2021/04/01 00:34:45;;;;;;;2.47;1.77;;;;;;;11.08;56.79;100771.44;5010376;28;20053;-71
2021/04/01 00:37:11;;;;;;;4.18;1.60;;;;;;;11.08;56.35;100771.44;4990229;28;20026;-71
2021/04/01 00:39:36;;;;;;;2.55;1.67;;;;;;;11.09;56.14;100770.47;5007697;28;20558;-72
2021/04/01 00:42:04;;;;;;;3.40;1.65;;;;;;;11.02;58.97;100767.59;5011683;28;20125;-72
2021/04/01 00:44:29;;;;;;;3.70;1.80;;;;;;;10.91;58.48;100766.97;5004564;28;20058;-71
2021/04/01 00:46:55;;;;;;;3.08;1.83;;;;;;;10.89;57.76;100768.91;5007039;28;20064;-72
2021/04/01 00:49:20;;;;;;;2.72;1.80;;;;;;;10.81;59.10;100762.53;5007535;28;20164;-71
2021/04/01 00:51:47;;;;;;;4.30;2.00;;;;;;;10.68;60.10;100770.00;5005973;28;20045;-71
2021/04/01 00:54:12;;;;;;;7.28;2.55;;;;;;;10.52;62.77;100767.16;5000213;28;20034;-73
2021/04/01 00:56:37;;;;;;;4.60;2.30;;;;;;;10.40;60.34;100764.69;5006874;28;20044;-71
2021/04/01 00:59:04;;;;;;;2.92;1.80;;;;;;;10.43;62.48;100775.94;5007435;28;20026;-71
2021/04/01 01:04:02;;;;;;;3.90;1.92;;;;;;;10.48;64.28;100763.13;5003010;28;20564;-71
2021/04/01 01:06:27;;;;;;;6.05;2.30;;;;;;;10.52;61.74;100769.78;5010637;28;20030;-73
2021/04/01 01:08:53;;;;;;;3.17;2.10;;;;;;;10.39;61.39;100768.31;5008562;28;20038;-71
2021/04/01 01:11:18;;;;;;;3.50;1.90;;;;;;;10.36;63.01;100773.88;5007383;28;20510;-71
2021/04/01 01:13:44;;;;;;;3.28;1.77;;;;;;;10.41;60.13;100766.34;5010327;28;20384;-73
2021/04/01 01:16:09;;;;;;;3.42;2.15;;;;;;;10.50;59.23;100769.09;4989172;28;20049;-71
2021/04/01 01:18:35;;;;;;;4.63;3.00;;;;;;;10.56;59.60;100765.91;4991822;28;20495;-72
2021/04/01 01:21:00;;;;;;;5.32;3.05;;;;;;;10.56;60.12;100765.91;4999331;28;20115;-73
2021/04/01 01:23:27;;;;;;;8.90;3.20;;;;;;;10.59;59.99;100761.13;5010468;28;20120;-71
2021/04/01 01:25:54;;;;;;;7.72;2.80;;;;;;;10.60;60.13;100759.31;4992513;28;20064;-71
2021/04/01 01:28:21;;;;;;;3.92;2.45;;;;;;;10.58;60.47;100755.97;5010015;28;20514;-71
2021/04/01 01:30:46;;;;;;;6.10;2.45;;;;;;;10.53;60.73;100760.88;5000758;28;20458;-71
2021/04/01 01:33:16;;;;;;;4.43;2.10;;;;;;;10.56;59.41;100758.78;5008162;28;20030;-71
2021/04/01 01:35:42;;;;;;;5.18;2.47;;;;;;;10.59;59.76;100755.00;5010664;28;20034;-72
2021/04/01 01:38:08;;;;;;;2.90;1.90;;;;;;;10.51;61.40;100758.41;5009716;28;20034;-71
2021/04/01 01:40:35;;;;;;;3.35;2.10;;;;;;;10.54;59.62;100754.63;5006743;28;20038;-72
2021/04/01 01:43:04;;;;;;;3.30;1.90;;;;;;;10.52;59.64;100749.47;5010366;28;20486;-71
2021/04/01 01:45:30;;;;;;;5.13;2.80;;;;;;;10.49;62.06;100749.78;5008572;28;20040;-71
2021/04/01 01:47:57;;;;;;;4.85;2.55;;;;;;;10.46;60.25;100746.56;5004900;28;20160;-71
2021/04/01 01:50:26;;;;;;;5.00;2.30;;;;;;;10.37;60.68;100757.06;5010122;28;20038;-71
2021/04/01 01:52:51;;;;;;;5.20;3.03;;;;;;;10.28;62.16;100760.56;5005659;28;20037;-71
2021/04/01 01:55:17;;;;;;;5.72;3.03;;;;;;;10.09;63.21;100760.59;5004248;28;20028;-71
2021/04/01 01:57:42;;;;;;;4.90;2.97;;;;;;;9.98;62.58;100758.94;5010573;28;20117;-71
2021/04/01 02:00:16;;;;;;;3.20;2.00;;;;;;;9.99;64.57;100764.06;5009203;28;20045;-71
2021/04/01 02:02:50;;;;;;;5.68;2.60;;;;;;;10.11;60.87;100758.63;5010338;28;20042;-71
2021/04/01 02:05:16;;;;;;;3.63;2.50;;;;;;;10.13;60.89;100759.31;5005504;28;20226;-71
2021/04/01 02:07:41;;;;;;;7.05;3.67;;;;;;;10.21;61.43;100757.63;5010388;28;20033;-71
2021/04/01 02:10:07;;;;;;;5.13;2.75;;;;;;;10.16;61.50;100756.41;5007156;28;20100;-71
2021/04/01 02:12:32;;;;;;;2.88;1.98;;;;;;;10.10;62.35;100763.06;5007469;28;20029;-71
2021/04/01 02:14:58;;;;;;;4.90;2.00;;;;;;;10.06;62.31;100750.28;5009275;28;20037;-71
2021/04/01 02:17:24;;;;;;;3.97;2.20;;;;;;;9.97;62.80;100754.63;5009901;28;20048;-74
2021/04/01 02:19:57;;;;;;;4.15;2.20;;;;;;;9.94;62.98;100754.91;4993724;28;20069;-71
2021/04/01 02:22:22;;;;;;;2.95;2.00;;;;;;;9.92;64.56;100752.41;5004048;28;20060;-71
2021/04/01 02:24:47;;;;;;;5.63;2.22;;;;;;;9.92;62.53;100751.59;5009621;28;20061;-72
2021/04/01 02:27:13;;;;;;;5.05;2.15;;;;;;;9.87;63.48;100752.00;4996020;28;20042;-71
2021/04/01 02:29:38;;;;;;;4.85;2.25;;;;;;;9.87;64.42;100757.28;4998173;28;20133;-72
2021/04/01 02:32:04;;;;;;;3.00;1.80;;;;;;;9.84;62.78;100752.28;5008339;28;20037;-72
2021/04/01 02:34:29;;;;;;;4.18;2.13;;;;;;;9.78;65.60;100752.84;5009428;28;20124;-71
2021/04/01 02:36:54;;;;;;;3.33;2.00;;;;;;;9.76;62.81;100749.50;4997492;28;20045;-70
2021/04/01 02:39:19;;;;;;;3.72;2.00;;;;;;;9.77;62.79;100754.66;5009436;28;20084;-71
2021/04/01 02:41:45;;;;;;;3.13;1.55;;;;;;;9.81;63.09;100749.91;5008136;28;20073;-71
2021/04/01 02:44:10;;;;;;;2.97;1.80;;;;;;;9.87;62.49;100753.81;5001128;28;20034;-71
2021/04/01 02:46:35;;;;;;;4.22;1.98;;;;;;;9.78;64.40;100750.22;5008213;28;20399;-72
2021/04/01 02:49:01;;;;;;;4.00;2.20;;;;;;;9.69;63.36;100758.97;5002416;28;20321;-71
2021/04/01 02:51:26;;;;;;;4.03;2.20;;;;;;;9.57;63.46;100753.81;5009335;28;20104;-72
2021/04/01 02:53:51;;;;;;;3.42;1.83;;;;;;;9.53;65.58;100752.47;5009393;28;20394;-72
2021/04/01 02:56:17;;;;;;;3.35;1.75;;;;;;;9.61;63.44;100753.56;5009187;28;20077;-72
2021/04/01 02:58:42;;;;;;;4.82;2.00;;;;;;;9.70;61.92;100753.56;5009152;28;20080;-71
2021/04/01 03:01:08;;;;;;;3.63;1.60;;;;;;;9.69;62.72;100754.53;5001330;28;20041;-71
2021/04/01 03:03:38;;;;;;;2.55;1.35;;;;;;;9.69;65.60;100756.34;5009744;28;20065;-71
2021/04/01 03:06:04;;;;;;;2.67;1.67;;;;;;;9.71;62.45;100749.94;5014586;28;20117;-72
2021/04/01 03:08:29;;;;;;;4.47;2.28;;;;;;;9.75;62.23;100750.50;5015306;28;20507;-72
2021/04/01 03:10:55;;;;;;;4.85;2.33;;;;;;;9.76;62.30;100746.88;5013902;28;20033;-71
2021/04/01 03:13:20;;;;;;;4.70;2.35;;;;;;;9.70;64.47;100744.78;5008968;28;20034;-71
2021/04/01 03:15:48;;;;;;;4.68;2.67;;;;;;;9.71;62.38;100749.94;5015650;28;20034;-72
2021/04/01 03:18:14;;;;;;;5.15;1.98;;;;;;;9.67;64.08;100748.53;5013749;28;20041;-71
2021/04/01 03:20:39;;;;;;;3.55;1.95;;;;;;;9.63;64.04;100746.31;5015245;28;20048;-72
2021/04/01 03:23:04;;;;;;;6.45;2.38;;;;;;;9.59;62.56;100743.13;5014995;28;20116;-72
2021/04/01 03:25:30;;;;;;;6.18;2.45;;;;;;;9.48;64.80;100738.81;5007461;28;20454;-71
2021/04/01 03:27:55;;;;;;;3.80;2.05;;;;;;;9.49;64.98;100740.50;5015113;28;20049;-71
2021/04/01 03:30:20;;;;;;;3.55;2.00;;;;;;;9.46;63.79;100742.56;5014293;28;20507;-71
2021/04/01 03:32:48;;;;;;;4.10;1.95;;;;;;;9.42;63.78;100742.03;5003469;28;20049;-71
2021/04/01 03:35:24;;;;;;;3.08;2.13;;;;;;;9.39;64.16;100739.69;5015292;28;20026;-72
2021/04/01 03:37:59;;;;;;;5.43;2.85;;;;;;;9.24;63.64;100741.88;4997785;28;20049;-71
2021/04/01 03:40:25;;;;;;;3.78;2.40;;;;;;;9.17;64.67;100746.03;5003535;28;20117;-71
2021/04/01 03:42:51;;;;;;;3.08;1.85;;;;;;;9.14;64.55;100741.03;5004708;28;20488;-71
2021/04/01 03:45:17;;;;;;;2.95;1.80;;;;;;;9.14;64.25;100739.22;5015196;28;20092;-72
2021/04/01 03:47:43;;;;;;;2.80;1.67;;;;;;;9.19;64.62;100744.09;5010117;28;20113;-71
2021/04/01 03:50:10;;;;;;;5.95;2.60;;;;;;;9.27;63.46;100751.31;5015322;28;20106;-71
2021/04/01 03:52:37;;;;;;;4.05;2.30;;;;;;;9.27;64.29;100746.03;5015505;28;20047;-73
2021/04/01 03:55:15;;;;;;;5.05;2.17;;;;;;;9.18;65.48;100753.00;5007093;28;20076;-71
2021/04/01 03:57:42;;;;;;;3.83;2.38;;;;;;;9.21;63.93;100741.34;5007915;28;20040;-70
2021/04/01 04:00:16;;;;;;;4.88;2.15;;;;;;;9.21;66.32;100742.16;5014621;28;20044;-73
2021/04/01 04:05:32;;;;;;;;;;;;;;;9.21;68.35;100743.97;5005910;28;20513;-71
2021/04/01 04:08:18;;;;;;;3.70;1.88;;;;;;;9.18;67.68;100745.09;5012452;28;19925;-71
2021/04/01 04:10:58;;;;;;;3.83;2.30;;;;;;;9.13;65.80;100742.84;5012585;28;20048;-72
2021/04/01 04:13:33;;;;;;;4.35;2.63;;;;;;;8.98;66.63;100746.00;5009993;28;20038;-72
2021/04/01 04:15:59;;;;;;;4.65;2.40;;;;;;;8.91;65.66;100735.16;5001919;28;20038;-73
2021/04/01 04:18:24;;;;;;;5.45;2.63;;;;;;;8.91;65.02;100746.56;5011624;28;20046;-71
2021/04/01 04:20:50;;;;;;;4.32;2.70;;;;;;;8.84;66.47;100744.59;4993728;28;20088;-72
2021/04/01 04:23:17;;;;;;;4.07;2.42;;;;;;;8.85;67.91;100736.56;5010690;28;20033;-71
2021/04/01 04:25:42;;;;;;;3.35;1.92;;;;;;;8.87;69.21;100739.88;4994100;28;20038;-71
2021/04/01 04:30:38;;;;;;;;;;;;;;;8.99;65.55;100742.44;5012535;28;20442;-71
2021/04/01 04:33:04;;;;;;;4.90;2.60;;;;;;;8.99;65.03;100742.44;5011995;28;19917;-72
2021/04/01 04:35:29;;;;;;;4.00;1.90;;;;;;;8.98;66.42;100732.81;4994241;28;20062;-71
2021/04/01 04:37:55;;;;;;;4.93;2.60;;;;;;;9.00;65.31;100741.44;5011885;28;20034;-71
2021/04/01 04:40:21;;;;;;;4.25;2.35;;;;;;;8.99;66.54;100739.78;4994834;28;20487;-71
2021/04/01 04:42:46;;;;;;;3.90;2.60;;;;;;;8.88;65.83;100749.47;5012903;28;20033;-72
2021/04/01 04:45:12;;;;;;;4.20;2.40;;;;;;;8.75;67.62;100745.38;5010915;28;20398;-72
2021/04/01 04:47:38;;;;;;;3.80;2.20;;;;;;;8.65;68.36;100755.91;5008300;28;20107;-73
2021/04/01 04:50:07;;;;;;;4.05;2.30;;;;;;;8.65;68.05;100756.78;4996077;28;20431;-72
2021/04/01 04:52:35;;;;;;;4.03;2.50;;;;;;;8.64;68.28;100748.97;5009356;28;20042;-71
2021/04/01 04:55:02;;;;;;;5.82;3.03;;;;;;;8.55;67.97;100750.59;5009294;28;20037;-71
2021/04/01 04:57:39;;;;;;;4.57;2.70;;;;;;;8.46;68.38;100751.41;5013609;28;20423;-71
2021/04/01 05:05:28;;;;;;;4.18;2.40;;;;;;;8.38;66.89;100759.09;5010987;28;20037;-71
2021/04/01 05:07:53;;;;;;;6.07;2.58;;;;;;;8.33;67.99;100764.78;5003864;28;20038;-71
2021/04/01 05:10:18;;;;;;;3.80;2.35;;;;;;;8.31;69.64;100758.78;5011248;28;20044;-73
2021/04/01 05:12:48;;;;;;;6.72;2.75;;;;;;;8.28;69.08;100764.34;5010732;28;20064;-71
2021/04/01 05:15:13;;;;;;;7.78;2.75;;;;;;;8.24;69.43;100762.91;5012121;28;20153;-71
2021/04/01 05:17:39;;;;;;;5.93;3.05;;;;;;;8.26;68.56;100769.72;4994128;28;20543;-71
2021/04/01 05:20:07;;;;;;;3.92;2.80;;;;;;;8.35;71.12;100776.03;4995637;28;20578;-72
2021/04/01 05:24:58;;;;;;;4.35;2.28;;;;;;;8.56;68.12;100770.75;5011300;28;20069;-74
2021/04/01 05:29:59;;;;;;;5.30;2.10;;;;;;;8.75;68.27;100783.16;5002373;28;20046;-73
2021/04/01 05:32:31;;;;;;;5.25;2.67;;;;;;;8.74;68.03;100781.47;4994665;28;20565;-72
2021/04/01 05:34:57;;;;;;;6.45;2.90;;;;;;;8.74;67.88;100786.75;5011665;28;20030;-73
2021/04/01 05:37:26;;;;;;;3.92;2.38;;;;;;;8.76;68.97;100787.44;5011774;28;20040;-73
2021/04/01 05:39:55;;;;;;;4.43;2.33;;;;;;;8.86;66.88;100782.22;5010838;28;20046;-71
2021/04/01 05:42:24;;;;;;;4.70;2.20;;;;;;;8.95;66.92;100789.31;5010373;28;20038;-71
2021/04/01 05:47:33;;;;;;;5.72;2.70;;;;;;;9.35;65.85;100797.16;5008132;28;20029;-72
2021/04/01 05:58:07;;;;;;;4.63;2.25;;;;;;;9.87;64.82;100796.09;5009541;28;20402;-73
2021/04/01 06:05:46;;;;;;;4.43;2.22;;;;;;;10.90;62.81;100797.88;4999591;28;20088;-71
2021/04/01 06:08:18;;;;;;;4.50;2.10;;;;;;;11.57;63.01;100794.94;4990276;28;20050;-71
2021/04/01 06:10:45;;;;;;;5.63;3.05;;;;;;;12.27;61.00;100792.34;5002610;28;20046;-73
2021/04/01 06:13:15;;;;;;;4.68;2.40;;;;;;;12.87;57.85;100794.13;5008674;28;20038;-71
2021/04/01 06:15:47;;;;;;;5.10;2.70;;;;;;;13.31;58.03;100809.91;5006972;28;20080;-73
2021/04/01 06:18:15;;;;;;;6.43;2.70;;;;;;;13.69;58.42;100807.66;5009661;28;20092;-71
2021/04/01 06:20:50;;;;;;;6.18;3.10;;;;;;;14.38;54.19;100810.75;5010101;28;20117;-71
2021/04/01 06:23:31;;;;;;;4.72;2.03;;;;;;;15.04;54.14;100812.22;5009158;28;20065;-71
2021/04/01 06:25:58;;;;;;;3.65;1.85;;;;;;;15.35;54.33;100807.88;5006320;28;20490;-71
2021/04/01 06:28:47;;;;;;;5.47;2.50;;;;;;;16.08;50.93;100802.00;5008383;28;20042;-71
2021/04/01 06:31:16;;;;;;;3.30;1.52;;;;;;;16.90;49.41;100803.81;5007105;28;20506;-70
2021/04/01 06:33:48;;;;;;;3.50;1.73;;;;;;;17.50;49.38;100807.16;5005838;28;20454;-71
2021/04/01 06:36:23;;;;;;;2.85;1.63;;;;;;;18.00;46.99;100807.25;5003352;28;20505;-71
2021/04/01 06:38:49;;;;;;;6.10;2.22;;;;;;;18.37;46.55;100808.72;5008477;28;20032;-71
2021/04/01 06:41:23;;;;;;;24.42;9.85;;;;;;;18.45;46.80;100813.94;5004934;28;20034;-71
2021/04/01 06:44:19;;;;;;;18.05;7.60;;;;;;;18.27;47.19;100804.75;5002936;28;20191;-73
2021/04/01 06:46:47;;;;;;;9.32;4.25;;;;;;;17.75;45.68;100796.06;5005414;28;20065;-71
2021/04/01 07:04:37;;;;;;;6.07;3.00;;;;;;;19.25;42.29;100805.47;5008406;28;20061;-71
2021/04/01 07:07:05;;;;;;;6.82;2.40;;;;;;;19.10;41.48;100810.97;5005473;28;20030;-72
2021/04/01 07:12:15;;;;;;;6.40;3.15;;;;;;;18.35;43.70;100816.16;5001407;28;20088;-71
2021/04/01 07:14:43;;;;;;;6.28;3.10;;;;;;;17.89;44.33;100811.25;5005034;28;20267;-71
2021/04/01 07:17:24;;;;;;;4.10;2.22;;;;;;;17.59;45.19;100810.53;5009032;28;20466;-71
2021/04/01 07:47:30;;;;;;;7.88;3.67;;;;;;;22.71;36.56;100811.31;4997019;28;20620;-73
2021/04/01 07:49:58;;;;;;;10.32;4.80;;;;;;;23.40;35.79;100818.13;4990700;28;20034;-72
2021/04/01 07:52:25;;;;;;;6.82;3.42;;;;;;;23.53;35.71;100815.25;5008188;28;20517;-71
2021/04/01 07:55:10;;;;;;;8.23;4.10;;;;;;;23.74;35.45;100813.09;5012080;28;20521;-71
2021/04/01 08:00:49;;;;;;;5.78;3.20;;;;;;;24.41;34.35;100811.94;5009790;28;20045;-71
2021/04/01 08:06:18;;;;;;;10.35;4.20;;;;;;;25.01;32.09;100809.72;5003025;28;20061;-72
2021/04/01 08:08:49;;;;;;;5.95;3.33;;;;;;;25.35;31.90;100811.75;4992908;28;20152;-71
2021/04/01 08:11:29;;;;;;;10.25;4.65;;;;;;;25.43;29.67;100805.91;5011529;28;20061;-71
2021/04/01 08:14:14;;;;;;;8.25;4.78;;;;;;;25.11;31.55;100814.50;5003998;28;20038;-71
2021/04/01 08:16:46;;;;;;;8.50;3.78;;;;;;;25.17;30.77;100810.88;5011273;28;20100;-71
2021/04/01 08:19:14;;;;;;;8.90;2.72;;;;;;;25.30;31.88;100798.13;5008811;28;20030;-73
2021/04/01 08:21:46;;;;;;;7.53;2.90;;;;;;;25.21;31.78;100800.38;5010904;28;20034;-71
2021/04/01 08:24:18;;;;;;;8.23;4.30;;;;;;;25.27;29.34;100799.44;5010270;28;20447;-72
2021/04/01 08:34:59;;;;;;;8.27;3.60;;;;;;;26.27;29.40;100811.38;5010158;28;20054;-73
2021/04/01 08:37:32;;;;;;;9.32;3.85;;;;;;;26.44;28.71;100821.38;5011295;28;20034;-71
2021/04/01 08:40:02;;;;;;;7.82;3.85;;;;;;;26.18;28.07;100815.56;5010286;28;20038;-72
2021/04/01 08:42:54;;;;;;;6.33;3.73;;;;;;;25.64;28.70;100813.34;5011192;28;20416;-72
2021/04/01 08:45:35;;;;;;;8.27;4.20;;;;;;;25.64;27.97;100815.22;5012082;28;20131;-70
2021/04/01 08:48:19;;;;;;;8.00;4.47;;;;;;;25.58;28.34;100817.03;5010033;28;20042;-74
2021/04/01 08:51:07;;;;;;;7.45;3.50;;;;;;;25.54;28.88;100818.56;5011179;28;20137;-72
2021/04/01 08:53:56;;;;;;;6.20;3.85;;;;;;;24.76;30.41;100815.44;5001134;28;20038;-70
2021/04/01 08:56:33;;;;;;;7.60;3.90;;;;;;;24.79;30.25;100812.28;5008135;28;20107;-72
2021/04/01 08:59:24;;;;;;;8.20;3.70;;;;;;;24.50;30.95;100815.97;5012456;28;20034;-71
2021/04/01 09:01:52;;;;;;;9.63;4.50;;;;;;;24.37;30.14;100801.59;5009786;28;20092;-71
2021/04/01 09:04:29;;;;;;;6.35;3.30;;;;;;;25.30;30.28;100806.25;5010294;28;20072;-72
2021/04/01 09:06:59;;;;;;;11.57;3.75;;;;;;;25.87;28.89;100797.22;5010484;28;20411;-74
2021/04/01 09:09:35;;;;;;;8.63;5.40;;;;;;;26.25;27.41;100802.66;5010541;28;20038;-72
2021/04/01 09:12:25;;;;;;;7.20;4.25;;;;;;;25.05;30.06;100804.69;5007305;28;20038;-72
2021/04/01 09:14:59;;;;;;;8.70;3.25;;;;;;;25.72;29.07;100795.03;5007963;28;20046;-71
2021/04/01 09:17:32;;;;;;;8.68;3.83;;;;;;;26.62;27.90;100793.16;5007947;28;20519;-72
2021/04/01 09:19:58;;;;;;;10.25;4.85;;;;;;;27.16;25.93;100798.66;5008950;28;20030;-72
2021/04/01 09:22:32;;;;;;;9.70;4.68;;;;;;;27.07;26.35;100790.13;5010258;28;20034;-72
2021/04/01 09:25:03;;;;;;;8.80;4.30;;;;;;;26.78;26.65;100789.56;4993619;28;20057;-71
2021/04/01 09:27:29;;;;;;;6.28;3.78;;;;;;;26.62;27.13;100783.09;5007616;28;20037;-71
2021/04/01 09:30:04;;;;;;;9.32;4.47;;;;;;;26.53;27.10;100781.06;4988093;28;20045;-73
2021/04/01 09:32:31;;;;;;;7.35;4.00;;;;;;;26.25;28.51;100774.75;5008615;28;20048;-71
2021/04/01 09:35:00;;;;;;;7.07;3.65;;;;;;;25.49;29.32;100771.66;5009736;28;20045;-72
2021/04/01 09:37:26;;;;;;;7.78;4.10;;;;;;;25.44;29.74;100775.09;5009569;28;20466;-72
2021/04/01 09:40:07;;;;;;;7.90;4.45;;;;;;;25.52;29.57;100776.56;4992475;28;20105;-72
2021/04/01 09:42:42;;;;;;;9.23;4.70;;;;;;;25.35;29.28;100777.38;5009079;28;20108;-72
2021/04/01 09:45:10;;;;;;;8.52;3.95;;;;;;;25.02;29.62;100770.78;5008510;28;20034;-72
2021/04/01 09:47:50;;;;;;;6.95;4.03;;;;;;;24.68;30.78;100772.56;5003576;28;20048;-72
2021/04/01 09:50:17;;;;;;;6.10;3.93;;;;;;;24.67;30.54;100776.31;5009432;28;20388;-72
2021/04/01 09:53:00;;;;;;;5.70;3.45;;;;;;;24.39;31.04;100768.94;5007048;28;20323;-71
2021/04/01 09:55:33;;;;;;;6.75;4.05;;;;;;;24.52;31.44;100776.81;5009999;28;20400;-71
2021/04/01 09:58:02;;;;;;;6.95;3.58;;;;;;;24.35;31.70;100774.00;5001659;28;20384;-73
2021/04/01 10:03:11;;;;;;;7.50;4.00;;;;;;;23.09;32.64;100776.03;5008959;28;20036;-73
2021/04/01 10:05:43;;;;;;;7.80;4.05;;;;;;;23.36;33.23;100779.19;4992545;28;20034;-73
2021/04/01 10:08:10;;;;;;;6.53;3.80;;;;;;;23.77;31.63;100769.44;5004566;28;20077;-73
2021/04/01 10:10:42;;;;;;;7.95;3.20;;;;;;;23.51;32.31;100774.16;5008672;28;20050;-73
2021/04/01 10:13:19;;;;;;;6.38;3.90;;;;;;;23.71;32.25;100771.13;4994698;28;20173;-73
2021/04/01 10:15:45;;;;;;;6.10;3.83;;;;;;;23.99;32.15;100766.16;5009709;28;20095;-73
2021/04/01 10:18:14;;;;;;;6.18;3.42;;;;;;;23.97;32.45;100765.56;5008457;28;20129;-72
2021/04/01 10:20:39;;;;;;;6.95;3.70;;;;;;;24.02;32.45;100752.16;5008964;28;20060;-72
2021/04/01 10:23:09;;;;;;;4.57;3.30;;;;;;;23.78;32.38;100752.16;5008836;28;20487;-73
2021/04/01 10:25:50;;;;;;;6.40;3.63;;;;;;;23.95;31.51;100753.13;5008997;28;20038;-72
2021/04/01 10:31:15;;;;;;;9.68;4.25;;;;;;;24.44;30.73;100752.03;5009094;28;20040;-73
2021/04/01 10:34:05;;;;;;;9.43;3.97;;;;;;;24.16;30.58;100746.28;4989554;28;20209;-72
2021/04/01 10:36:32;;;;;;;8.02;4.80;;;;;;;24.31;30.45;100734.16;5007451;28;20565;-70
2021/04/01 10:39:09;;;;;;;10.45;4.63;;;;;;;24.25;30.15;100735.94;5009540;28;20190;-70
2021/04/01 10:41:46;;;;;;;7.05;4.13;;;;;;;24.29;29.92;100728.19;4999632;28;20034;-74
2021/04/01 10:44:13;;;;;;;10.23;5.35;;;;;;;24.06;29.85;100729.03;5000869;28;20030;-71
2021/04/01 10:46:42;;;;;;;13.85;6.75;;;;;;;24.16;29.25;100729.25;5008636;28;20038;-70
2021/04/01 10:49:10;;;;;;;10.38;6.45;;;;;;;24.12;29.19;100734.31;5002162;28;20522;-71
2021/04/01 10:51:36;;;;;;;8.77;5.20;;;;;;;24.03;29.72;100726.81;4990192;28;20079;-70
2021/04/01 10:54:08;;;;;;;11.85;6.72;;;;;;;24.12;29.19;100720.81;5008975;28;20038;-71
2021/04/01 10:56:47;;;;;;;13.10;6.82;;;;;;;24.04;29.34;100718.47;5007908;28;20036;-71
2021/04/01 10:59:12;;;;;;;9.75;5.97;;;;;;;23.74;30.76;100726.69;5008870;28;20049;-72
2021/04/01 11:01:41;;;;;;;18.13;8.48;;;;;;;24.00;28.86;100727.28;5008667;28;20502;-72
2021/04/01 11:04:09;;;;;;;13.75;7.88;;;;;;;23.61;29.43;100721.50;5006882;28;20038;-71
2021/04/01 11:06:36;;;;;;;10.75;6.75;;;;;;;23.38;30.41;100723.09;5008647;28;20176;-72
2021/04/01 11:09:02;;;;;;;10.98;6.60;;;;;;;23.36;30.72;100721.66;5008739;28;20163;-72
2021/04/01 11:11:54;;;;;;;9.45;5.55;;;;;;;23.21;32.15;100714.03;5008788;28;20049;-72
2021/04/01 11:14:24;;;;;;;9.68;5.63;;;;;;;23.31;31.53;100712.41;4984469;28;20403;-72
2021/04/01 11:16:52;;;;;;;11.90;6.03;;;;;;;23.25;31.92;100716.03;5008816;28;20622;-72
2021/04/01 11:19:18;;;;;;;12.77;7.53;;;;;;;23.14;32.17;100714.09;5008604;28;20079;-72
2021/04/01 11:21:45;;;;;;;13.32;7.05;;;;;;;23.01;32.40;100717.03;5009423;28;20191;-72
2021/04/01 11:24:11;;;;;;;11.05;5.63;;;;;;;23.05;32.13;100716.34;5009560;28;20402;-71
2021/04/01 11:26:37;;;;;;;11.82;6.75;;;;;;;22.98;32.89;100717.47;5010964;28;20042;-72
2021/04/01 11:29:12;;;;;;;10.25;6.55;;;;;;;23.15;32.44;100720.34;5012624;28;20034;-71
2021/04/01 11:31:37;;;;;;;11.65;7.03;;;;;;;23.28;33.35;100723.66;5013117;28;20076;-73
2021/04/01 11:34:03;;;;;;;9.43;5.78;;;;;;;23.48;33.12;100711.75;5011405;28;20038;-72
2021/04/01 11:36:33;;;;;;;10.23;5.45;;;;;;;23.51;33.99;100716.66;5011752;28;20030;-72
2021/04/01 11:38:59;;;;;;;14.95;8.00;;;;;;;23.67;33.18;100715.16;5012866;28;20030;-73
2021/04/01 11:41:27;;;;;;;11.70;7.07;;;;;;;23.61;33.14;100716.09;5011599;28;20103;-72
2021/04/01 11:43:58;;;;;;;11.60;6.30;;;;;;;23.36;37.08;100702.78;5012784;28;20034;-73
2021/04/01 11:46:25;;;;;;;12.82;6.82;;;;;;;23.76;33.96;100708.38;5011075;28;20038;-72
2021/04/01 11:48:53;;;;;;;11.52;6.72;;;;;;;23.93;33.70;100708.47;5011279;28;20514;-73
2021/04/01 11:51:32;;;;;;;15.82;8.65;;;;;;;24.05;33.22;100711.16;5012511;28;20546;-72
2021/04/01 11:53:57;;;;;;;15.02;9.77;;;;;;;23.97;33.35;100709.66;5012322;28;20038;-72
2021/04/01 11:56:32;;;;;;;17.40;9.63;;;;;;;23.77;33.27;100707.31;5011205;28;20064;-72
2021/04/01 11:59:09;;;;;;;16.17;9.07;;;;;;;23.58;36.42;100711.16;5012259;28;20033;-72
2021/04/01 12:01:36;;;;;;;19.65;11.40;;;;;;;23.81;33.11;100713.91;5009190;28;20553;-72
2021/04/01 12:04:09;;;;;;;17.50;11.45;;;;;;;23.58;33.71;100708.47;5007302;28;20041;-72
2021/04/01 12:06:36;;;;;;;25.35;15.25;;;;;;;24.01;30.65;100701.91;5008184;28;20204;-72
2021/04/01 12:09:02;;;;;;;28.02;15.75;;;;;;;23.84;30.36;100707.22;5008137;28;20145;-73
2021/04/01 12:11:46;;;;;;;30.60;17.10;;;;;;;23.73;30.69;100703.41;5010760;28;20423;-72
2021/04/01 12:14:15;;;;;;;26.33;15.73;;;;;;;23.62;31.10;100696.13;5011293;28;20499;-72
2021/04/01 12:16:41;;;;;;;25.80;14.32;;;;;;;23.57;31.26;100693.31;5004151;28;20050;-72
2021/04/01 12:19:07;;;;;;;22.50;12.70;;;;;;;23.33;32.04;100687.88;5010419;28;20042;-73
2021/04/01 12:21:33;;;;;;;23.30;14.20;;;;;;;23.36;32.27;100687.44;5012150;28;20049;-72
2021/04/01 12:24:02;;;;;;;31.63;16.45;;;;;;;23.38;31.39;100682.59;5009419;28;20049;-71
2021/04/01 12:26:30;;;;;;;22.55;12.73;;;;;;;23.43;33.44;100685.44;4999893;28;20500;-71
2021/04/01 12:29:01;;;;;;;23.90;14.40;;;;;;;23.53;32.01;100671.38;5011680;28;20270;-72
2021/04/01 12:31:39;;;;;;;30.92;18.88;;;;;;;23.69;30.56;100676.06;4993633;28;20038;-72
2021/04/01 12:34:11;;;;;;;22.98;14.75;;;;;;;23.73;30.67;100671.00;5010597;28;20508;-74
2021/04/01 12:36:41;;;;;;;22.35;15.05;;;;;;;23.70;31.63;100666.09;5010518;28;20042;-73
2021/04/01 12:39:10;;;;;;;28.10;18.00;;;;;;;23.73;33.52;100669.16;5011692;28;20402;-73
2021/04/01 12:41:37;;;;;;;27.67;16.63;;;;;;;23.75;28.87;100650.03;5011261;28;20499;-72
2021/04/01 12:44:03;;;;;;;26.75;16.85;;;;;;;23.92;28.72;100653.63;5008515;28;20054;-72
2021/04/01 12:46:40;;;;;;;23.85;15.13;;;;;;;23.96;27.48;100645.91;4992652;28;20507;-73
2021/04/01 12:49:07;;;;;;;30.88;18.52;;;;;;;24.01;26.70;100637.91;5007582;28;20916;-73
2021/04/01 12:51:52;;;;;;;30.27;17.80;;;;;;;23.81;26.74;100641.00;5007417;28;20072;-72
2021/04/01 12:54:23;;;;;;;22.83;13.57;;;;;;;23.89;27.15;100629.81;4984965;28;20522;-73
2021/04/01 12:56:58;;;;;;;;;;;;;;;24.04;26.28;100637.41;5010369;28;20042;-72
2021/04/01 12:59:32;;;;;;;26.35;16.65;;;;;;;23.97;26.42;100634.03;5005356;28;19928;-72
2021/04/01 13:02:04;;;;;;;27.33;16.02;;;;;;;23.66;27.82;100625.22;4993383;28;20080;-72
2021/04/01 13:04:31;;;;;;;26.35;17.13;;;;;;;23.56;27.95;100621.50;5010445;28;20080;-72
2021/04/01 13:09:35;;;;;;;23.58;13.95;;;;;;;23.69;28.65;100615.84;5011054;28;20034;-72
2021/04/01 13:12:10;;;;;;;30.50;17.02;;;;;;;23.91;27.33;100616.91;5011024;28;20045;-72
2021/04/01 13:14:36;;;;;;;28.35;16.38;;;;;;;23.95;27.70;100618.06;5011555;28;20061;-72
2021/04/01 13:17:01;;;;;;;25.85;16.52;;;;;;;23.83;28.69;100611.03;5011501;28;20494;-72
2021/04/01 13:19:26;;;;;;;27.75;15.95;;;;;;;23.98;27.55;100605.13;5012572;28;20022;-72